createdAt,value
2023-03-06T00:00:25.195Z,14.12
2023-03-06T00:01:25.146Z,24
2023-03-06T00:02:25.150Z,4.24
2023-03-06T00:03:25.180Z,2.82
2023-03-06T00:04:25.137Z,354.35
2023-03-06T00:05:25.205Z,345.88
2023-03-06T00:06:25.132Z,360
2023-03-06T00:07:25.131Z,285.18
2023-03-06T00:08:25.134Z,290.82
2023-03-06T00:09:25.133Z,40.94
2023-03-06T00:10:25.133Z,357.18
2023-03-06T00:11:25.159Z,12.71
2023-03-06T00:12:25.130Z,21.18
2023-03-06T00:13:25.119Z,15.53
2023-03-06T00:14:25.119Z,38.12
2023-03-06T00:15:25.121Z,360
2023-03-06T00:16:25.192Z,33.88
2023-03-06T00:17:25.130Z,345.88
2023-03-06T00:18:25.131Z,60.71
2023-03-06T00:19:25.125Z,320.47
2023-03-06T00:20:25.134Z,25.41
2023-03-06T00:21:25.128Z,25.41
2023-03-06T00:22:25.130Z,351.53
2023-03-06T00:23:25.130Z,14.12
2023-03-06T00:24:25.129Z,355.76
2023-03-06T00:25:25.142Z,290.82
2023-03-06T00:26:25.132Z,22.59
2023-03-06T00:27:25.161Z,352.94
2023-03-06T00:28:25.133Z,347.29
2023-03-06T00:29:25.132Z,26.82
2023-03-06T00:30:25.144Z,14.12
2023-03-06T00:31:25.173Z,19.76
2023-03-06T00:32:25.213Z,357.18
2023-03-06T00:33:25.128Z,336
2023-03-06T00:34:25.127Z,348.71
2023-03-06T00:35:25.205Z,5.65
2023-03-06T00:36:25.145Z,345.88
2023-03-06T00:37:25.143Z,2.82
2023-03-06T00:38:25.133Z,67.76
2023-03-06T00:39:25.132Z,360
2023-03-06T00:40:25.139Z,11.29
2023-03-06T00:41:25.138Z,16.94
2023-03-06T00:42:25.124Z,45.18
2023-03-06T00:43:25.164Z,45.18
2023-03-06T00:44:25.131Z,76.24
2023-03-06T00:45:25.203Z,8.47
2023-03-06T00:46:25.127Z,8.47
2023-03-06T00:47:25.150Z,8.47
2023-03-06T00:48:25.135Z,8.47
2023-03-06T00:49:25.130Z,8.47
2023-03-06T00:50:25.135Z,8.47
2023-03-06T00:51:25.149Z,8.47
2023-03-06T00:52:25.142Z,8.47
2023-03-06T00:53:25.138Z,354.35
2023-03-06T00:54:25.139Z,14.12
2023-03-06T00:55:25.152Z,8.47
2023-03-06T00:56:25.151Z,8.47
2023-03-06T00:57:25.149Z,8.47
2023-03-06T00:58:25.148Z,24
2023-03-06T00:59:25.165Z,11.29
2023-03-06T01:00:25.138Z,50.82
2023-03-06T01:01:25.156Z,26.82
2023-03-06T01:02:25.205Z,355.76
2023-03-06T01:03:25.157Z,2.82
2023-03-06T01:04:25.144Z,357.18
2023-03-06T01:05:25.164Z,357.18
2023-03-06T01:06:25.143Z,357.18
2023-03-06T01:07:25.138Z,357.18
2023-03-06T01:08:25.146Z,323.29
2023-03-06T01:09:25.134Z,348.71
2023-03-06T01:10:25.133Z,345.88
2023-03-06T01:11:25.136Z,360
2023-03-06T01:12:25.149Z,5.65
2023-03-06T01:13:25.150Z,360
2023-03-06T01:14:25.143Z,2.82
2023-03-06T01:15:25.159Z,343.06
2023-03-06T01:16:25.269Z,295.06
2023-03-06T01:17:25.161Z,350.12
2023-03-06T01:18:25.133Z,350.12
2023-03-06T01:19:25.140Z,350.12
2023-03-06T01:20:25.151Z,350.12
2023-03-06T01:21:25.157Z,350.12
2023-03-06T01:22:25.147Z,350.12
2023-03-06T01:23:25.139Z,350.12
2023-03-06T01:24:25.143Z,350.12
2023-03-06T01:25:25.149Z,350.12
2023-03-06T01:26:25.159Z,350.12
2023-03-06T01:27:25.138Z,350.12
2023-03-06T01:28:25.149Z,235.76
2023-03-06T01:29:25.145Z,177.88
2023-03-06T01:30:25.143Z,177.88
2023-03-06T01:31:25.189Z,177.88
2023-03-06T01:32:25.199Z,238.59
2023-03-06T01:33:25.146Z,248.47
2023-03-06T01:34:25.143Z,223.06
2023-03-06T01:35:25.171Z,254.12
2023-03-06T01:36:25.146Z,268.24
2023-03-06T01:37:25.160Z,227.29
2023-03-06T01:38:25.151Z,228.71
2023-03-06T01:39:25.142Z,228.71
2023-03-06T01:40:25.157Z,228.71
2023-03-06T01:41:25.156Z,228.71
2023-03-06T01:42:25.156Z,228.71
2023-03-06T01:43:25.152Z,228.71
2023-03-06T01:44:25.171Z,228.71
2023-03-06T01:45:25.149Z,228.71
2023-03-06T01:46:25.155Z,228.71
2023-03-06T01:47:25.175Z,228.71
2023-03-06T01:48:25.173Z,228.71
2023-03-06T01:49:25.162Z,300.71
2023-03-06T01:50:25.160Z,288
2023-03-06T01:51:25.157Z,288
2023-03-06T01:52:25.172Z,292.24
2023-03-06T01:53:25.160Z,280.94
2023-03-06T01:54:25.154Z,252.71
2023-03-06T01:55:25.174Z,285.18
2023-03-06T01:56:25.166Z,255.53
2023-03-06T01:57:25.163Z,255.53
2023-03-06T01:58:25.172Z,255.53
2023-03-06T01:59:25.172Z,255.53
2023-03-06T02:00:25.156Z,269.65
2023-03-06T02:01:25.229Z,276.71
2023-03-06T02:02:25.251Z,279.53
2023-03-06T02:03:25.180Z,255.53
2023-03-06T02:04:25.175Z,278.12
2023-03-06T02:05:25.161Z,265.41
2023-03-06T02:06:25.169Z,278.12
2023-03-06T02:07:25.159Z,278.12
2023-03-06T02:08:25.177Z,249.88
2023-03-06T02:09:25.164Z,249.88
2023-03-06T02:10:25.169Z,275.29
2023-03-06T02:11:25.249Z,273.88
2023-03-06T02:12:25.171Z,276.71
2023-03-06T02:13:25.187Z,254.12
2023-03-06T02:14:25.169Z,271.06
2023-03-06T02:15:25.172Z,203.29
2023-03-06T02:16:25.256Z,224.47
2023-03-06T02:17:25.169Z,197.65
2023-03-06T02:18:25.166Z,200.47
2023-03-06T02:19:25.198Z,234.35
2023-03-06T02:20:25.168Z,234.35
2023-03-06T02:21:25.186Z,234.35
2023-03-06T02:22:25.179Z,234.35
2023-03-06T02:23:25.162Z,234.35
2023-03-06T02:24:25.169Z,288
2023-03-06T02:25:25.183Z,300.71
2023-03-06T02:26:25.184Z,317.65
2023-03-06T02:27:25.174Z,341.65
2023-03-06T02:28:25.184Z,327.53
2023-03-06T02:29:25.182Z,306.35
2023-03-06T02:30:25.173Z,320.47
2023-03-06T02:31:25.178Z,323.29
2023-03-06T02:32:25.197Z,345.88
2023-03-06T02:33:25.198Z,5.65
2023-03-06T02:34:25.178Z,7.06
2023-03-06T02:35:25.234Z,29.65
2023-03-06T02:36:25.183Z,8.47
2023-03-06T02:37:25.194Z,22.59
2023-03-06T02:38:25.179Z,7.06
2023-03-06T02:39:25.185Z,19.76
2023-03-06T02:40:25.177Z,16.94
2023-03-06T02:41:25.192Z,21.18
2023-03-06T02:42:25.187Z,21.18
2023-03-06T02:43:25.186Z,16.94
2023-03-06T02:44:25.175Z,5.65
2023-03-06T02:45:25.192Z,14.12
2023-03-06T02:46:25.227Z,15.53
2023-03-06T02:47:25.176Z,15.53
2023-03-06T02:48:25.179Z,15.53
2023-03-06T02:49:26.489Z,15.53
2023-03-06T02:50:25.181Z,15.53
2023-03-06T02:51:25.213Z,279.53
2023-03-06T02:52:25.195Z,290.82
2023-03-06T02:53:25.172Z,280.94
2023-03-06T02:54:25.176Z,292.24
2023-03-06T02:55:25.184Z,295.06
2023-03-06T02:56:25.175Z,295.06
2023-03-06T02:57:25.186Z,295.06
2023-03-06T02:58:25.179Z,279.53
2023-03-06T02:59:25.188Z,319.06
2023-03-06T03:00:25.194Z,319.06
2023-03-06T03:01:25.268Z,319.06
2023-03-06T03:02:25.185Z,319.06
2023-03-06T03:03:25.180Z,319.06
2023-03-06T03:04:25.304Z,319.06
2023-03-06T03:05:25.204Z,319.06
2023-03-06T03:06:25.179Z,319.06
2023-03-06T03:07:25.202Z,319.06
2023-03-06T03:08:25.195Z,319.06
2023-03-06T03:09:25.201Z,319.06
2023-03-06T03:10:25.174Z,319.06
2023-03-06T03:11:25.173Z,319.06
2023-03-06T03:12:25.191Z,319.06
2023-03-06T03:13:25.197Z,319.06
2023-03-06T03:14:25.168Z,319.06
2023-03-06T03:15:25.203Z,319.06
2023-03-06T03:16:25.181Z,319.06
2023-03-06T03:17:25.182Z,321.88
2023-03-06T03:18:25.194Z,312
2023-03-06T03:19:25.185Z,299.29
2023-03-06T03:20:25.193Z,299.29
2023-03-06T03:21:25.200Z,299.29
2023-03-06T03:22:25.175Z,299.29
2023-03-06T03:23:25.217Z,299.29
2023-03-06T03:24:25.232Z,299.29
2023-03-06T03:25:25.191Z,299.29
2023-03-06T03:26:25.185Z,299.29
2023-03-06T03:27:25.206Z,299.29
2023-03-06T03:28:25.194Z,299.29
2023-03-06T03:29:25.177Z,299.29
2023-03-06T03:30:25.208Z,299.29
2023-03-06T03:31:25.297Z,299.29
2023-03-06T03:32:25.223Z,299.29
2023-03-06T03:33:25.203Z,299.29
2023-03-06T03:34:25.193Z,299.29
2023-03-06T03:35:25.202Z,299.29
2023-03-06T03:36:25.188Z,299.29
2023-03-06T03:37:25.202Z,299.29
2023-03-06T03:38:25.189Z,299.29
2023-03-06T03:39:25.237Z,299.29
2023-03-06T03:40:25.194Z,299.29
2023-03-06T03:41:25.202Z,299.29
2023-03-06T03:42:25.185Z,299.29
2023-03-06T03:43:25.213Z,299.29
2023-03-06T03:44:25.196Z,299.29
2023-03-06T03:45:25.197Z,299.29
2023-03-06T03:46:25.228Z,299.29
2023-03-06T03:47:25.209Z,299.29
2023-03-06T03:48:25.216Z,299.29
2023-03-06T03:49:25.192Z,299.29
2023-03-06T03:50:25.195Z,299.29
2023-03-06T03:51:25.200Z,299.29
2023-03-06T03:52:25.219Z,299.29
2023-03-06T03:53:25.204Z,299.29
2023-03-06T03:54:25.203Z,299.29
2023-03-06T03:55:25.220Z,299.29
2023-03-06T03:56:25.203Z,299.29
2023-03-06T03:57:25.201Z,299.29
2023-03-06T03:58:25.196Z,299.29
2023-03-06T03:59:25.199Z,299.29
2023-03-06T04:00:25.206Z,299.29
2023-03-06T04:01:25.202Z,299.29
2023-03-06T04:02:25.204Z,299.29
2023-03-06T04:03:25.192Z,299.29
2023-03-06T04:04:25.217Z,299.29
2023-03-06T04:05:25.210Z,299.29
2023-03-06T04:06:25.198Z,299.29
2023-03-06T04:07:25.220Z,299.29
2023-03-06T04:08:25.198Z,299.29
2023-03-06T04:09:25.195Z,299.29
2023-03-06T04:10:25.198Z,299.29
2023-03-06T04:11:25.329Z,299.29
2023-03-06T04:12:25.196Z,299.29
2023-03-06T04:13:25.204Z,299.29
2023-03-06T04:14:25.193Z,299.29
2023-03-06T04:15:25.207Z,299.29
2023-03-06T04:16:25.238Z,299.29
2023-03-06T04:17:25.251Z,299.29
2023-03-06T04:18:25.196Z,299.29
2023-03-06T04:19:25.202Z,299.29
2023-03-06T04:20:25.200Z,299.29
2023-03-06T04:21:25.216Z,299.29
2023-03-06T04:22:25.201Z,299.29
2023-03-06T04:23:25.218Z,299.29
2023-03-06T04:24:25.202Z,299.29
2023-03-06T04:25:25.301Z,299.29
2023-03-06T04:26:25.198Z,299.29
2023-03-06T04:27:25.226Z,299.29
2023-03-06T04:28:25.205Z,299.29
2023-03-06T04:29:25.213Z,299.29
2023-03-06T04:30:25.285Z,299.29
2023-03-06T04:31:25.237Z,299.29
2023-03-06T04:32:25.318Z,299.29
2023-03-06T04:33:25.214Z,299.29
2023-03-06T04:34:25.223Z,299.29
2023-03-06T04:35:25.255Z,299.29
2023-03-06T04:36:25.210Z,299.29
2023-03-06T04:37:25.223Z,299.29
2023-03-06T04:38:25.229Z,299.29
2023-03-06T04:39:25.212Z,299.29
2023-03-06T04:40:25.281Z,299.29
2023-03-06T04:41:25.213Z,299.29
2023-03-06T04:42:25.208Z,299.29
2023-03-06T04:43:25.236Z,299.29
2023-03-06T04:44:25.228Z,299.29
2023-03-06T04:45:25.279Z,299.29
2023-03-06T04:46:25.212Z,299.29
2023-03-06T04:47:25.223Z,299.29
2023-03-06T04:48:25.223Z,299.29
2023-03-06T04:49:25.214Z,299.29
2023-03-06T04:50:25.370Z,299.29
2023-03-06T04:51:25.232Z,299.29
2023-03-06T04:52:25.213Z,299.29
2023-03-06T04:53:25.212Z,299.29
2023-03-06T04:54:25.227Z,299.29
2023-03-06T04:55:25.222Z,299.29
2023-03-06T04:56:25.216Z,299.29
2023-03-06T04:57:25.224Z,299.29
2023-03-06T04:58:25.222Z,299.29
2023-03-06T04:59:25.234Z,299.29
2023-03-06T05:00:25.276Z,299.29
2023-03-06T05:01:25.260Z,299.29
2023-03-06T05:02:25.233Z,299.29
2023-03-06T05:03:25.222Z,299.29
2023-03-06T05:04:25.219Z,299.29
2023-03-06T05:05:25.217Z,299.29
2023-03-06T05:06:25.239Z,299.29
2023-03-06T05:07:25.211Z,299.29
2023-03-06T05:08:25.218Z,299.29
2023-03-06T05:09:25.217Z,299.29
2023-03-06T05:10:25.212Z,299.29
2023-03-06T05:11:25.224Z,299.29
2023-03-06T05:12:25.236Z,299.29
2023-03-06T05:13:25.251Z,299.29
2023-03-06T05:14:25.213Z,299.29
2023-03-06T05:15:25.309Z,299.29
2023-03-06T05:16:25.231Z,299.29
2023-03-06T05:17:25.225Z,299.29
2023-03-06T05:18:25.215Z,299.29
2023-03-06T05:19:25.222Z,299.29
2023-03-06T05:20:25.226Z,299.29
2023-03-06T05:21:25.210Z,299.29
2023-03-06T05:22:25.224Z,299.29
2023-03-06T05:23:25.219Z,299.29
2023-03-06T05:24:25.214Z,299.29
2023-03-06T05:25:25.220Z,299.29
2023-03-06T05:26:25.219Z,299.29
2023-03-06T05:27:25.224Z,299.29
2023-03-06T05:28:25.229Z,299.29
2023-03-06T05:29:25.213Z,299.29
2023-03-06T05:30:25.206Z,299.29
2023-03-06T05:31:25.359Z,299.29
2023-03-06T05:32:25.253Z,299.29
2023-03-06T05:33:25.221Z,299.29
2023-03-06T05:34:25.215Z,299.29
2023-03-06T05:35:25.278Z,299.29
2023-03-06T05:36:25.231Z,299.29
2023-03-06T05:37:25.229Z,299.29
2023-03-06T05:38:25.218Z,299.29
2023-03-06T05:39:25.222Z,299.29
2023-03-06T05:40:25.240Z,299.29
2023-03-06T05:41:25.220Z,299.29
2023-03-06T05:42:26.869Z,299.29
2023-03-06T05:43:25.218Z,299.29
2023-03-06T05:44:25.223Z,299.29
2023-03-06T05:45:25.231Z,299.29
2023-03-06T05:46:25.234Z,299.29
2023-03-06T05:47:25.262Z,299.29
2023-03-06T05:48:25.217Z,299.29
2023-03-06T05:49:25.254Z,299.29
2023-03-06T05:50:25.223Z,299.29
2023-03-06T05:51:25.228Z,299.29
2023-03-06T05:52:25.235Z,299.29
2023-03-06T05:53:25.234Z,299.29
2023-03-06T05:54:25.229Z,299.29
2023-03-06T05:55:25.235Z,299.29
2023-03-06T05:56:25.232Z,299.29
2023-03-06T05:57:25.235Z,299.29
2023-03-06T05:58:25.229Z,299.29
2023-03-06T05:59:25.236Z,299.29
2023-03-06T06:00:25.241Z,299.29
2023-03-06T06:01:25.237Z,299.29
2023-03-06T06:02:25.299Z,299.29
2023-03-06T06:03:25.316Z,299.29
2023-03-06T06:04:25.243Z,299.29
2023-03-06T06:05:25.228Z,299.29
2023-03-06T06:06:25.236Z,299.29
2023-03-06T06:07:25.230Z,299.29
2023-03-06T06:08:25.234Z,299.29
2023-03-06T06:09:25.233Z,299.29
2023-03-06T06:10:25.247Z,299.29
2023-03-06T06:11:25.244Z,299.29
2023-03-06T06:12:25.232Z,299.29
2023-03-06T06:13:25.229Z,299.29
2023-03-06T06:14:25.231Z,299.29
2023-03-06T06:15:25.240Z,299.29
2023-03-06T06:16:25.235Z,299.29
2023-03-06T06:17:25.301Z,299.29
2023-03-06T06:18:25.230Z,299.29
2023-03-06T06:19:25.263Z,299.29
2023-03-06T06:20:25.251Z,299.29
2023-03-06T06:21:25.248Z,299.29
2023-03-06T06:22:25.229Z,299.29
2023-03-06T06:23:25.236Z,299.29
2023-03-06T06:24:25.265Z,299.29
2023-03-06T06:25:25.246Z,299.29
2023-03-06T06:26:25.242Z,299.29
2023-03-06T06:27:25.240Z,299.29
2023-03-06T06:28:25.251Z,299.29
2023-03-06T06:29:25.232Z,299.29
2023-03-06T06:30:25.248Z,299.29
2023-03-06T06:31:25.311Z,299.29
2023-03-06T06:32:25.338Z,299.29
2023-03-06T06:33:25.245Z,299.29
2023-03-06T06:34:25.247Z,299.29
2023-03-06T06:35:25.324Z,299.29
2023-03-06T06:36:25.234Z,299.29
2023-03-06T06:37:25.237Z,299.29
2023-03-06T06:38:25.241Z,299.29
2023-03-06T06:39:25.247Z,299.29
2023-03-06T06:40:25.284Z,299.29
2023-03-06T06:41:42.582Z,299.29
2023-03-06T06:42:38.232Z,299.29
2023-03-06T06:43:25.253Z,299.29
2023-03-06T06:44:25.246Z,299.29
2023-03-06T06:45:25.248Z,299.29
2023-03-06T06:47:09.545Z,299.29
2023-03-06T06:47:25.972Z,299.29
2023-03-06T06:48:25.245Z,299.29
2023-03-06T06:49:25.256Z,299.29
2023-03-06T06:50:25.268Z,299.29
2023-03-06T06:51:25.269Z,299.29
2023-03-06T06:52:25.248Z,299.29
2023-03-06T06:53:27.354Z,299.29
2023-03-06T06:54:25.251Z,299.29
2023-03-06T06:55:25.270Z,299.29
2023-03-06T06:56:25.248Z,299.29
2023-03-06T06:57:25.256Z,299.29
2023-03-06T06:58:25.247Z,299.29
2023-03-06T06:59:25.252Z,299.29
2023-03-06T07:00:25.258Z,299.29
2023-03-06T07:01:25.273Z,299.29
2023-03-06T07:02:25.264Z,299.29
2023-03-06T07:03:25.264Z,299.29
2023-03-06T07:04:25.250Z,292.24
2023-03-06T07:05:25.265Z,288
2023-03-06T07:06:25.257Z,296.47
2023-03-06T07:07:26.496Z,297.88
2023-03-06T07:08:25.288Z,327.53
2023-03-06T07:09:25.268Z,331.76
2023-03-06T07:10:25.251Z,337.41
2023-03-06T07:11:25.261Z,317.65
2023-03-06T07:12:25.265Z,309.18
2023-03-06T07:13:25.278Z,350.12
2023-03-06T07:14:25.275Z,347.29
2023-03-06T07:15:25.257Z,347.29
2023-03-06T07:16:25.262Z,347.29
2023-03-06T07:17:25.264Z,347.29
2023-03-06T07:18:25.268Z,347.29
2023-03-06T07:19:25.285Z,347.29
2023-03-06T07:20:25.269Z,347.29
2023-03-06T07:21:25.262Z,290.82
2023-03-06T07:22:25.283Z,324.71
2023-03-06T07:23:25.290Z,304.94
2023-03-06T07:24:25.266Z,328.94
2023-03-06T07:25:25.279Z,357.18
2023-03-06T07:26:25.272Z,321.88
2023-03-06T07:27:25.333Z,334.59
2023-03-06T07:28:25.267Z,314.82
2023-03-06T07:29:25.267Z,12.71
2023-03-06T07:30:25.303Z,0
2023-03-06T07:31:25.323Z,344.47
2023-03-06T07:32:25.369Z,344.47
2023-03-06T07:33:25.272Z,331.76
2023-03-06T07:34:25.277Z,354.35
2023-03-06T07:35:25.264Z,347.29
2023-03-06T07:36:25.278Z,360
2023-03-06T07:37:25.283Z,357.18
2023-03-06T07:38:25.275Z,344.47
2023-03-06T07:39:25.297Z,42.35
2023-03-06T07:40:25.286Z,1.41
2023-03-06T07:41:25.271Z,347.29
2023-03-06T07:42:25.274Z,0
2023-03-06T07:43:25.275Z,22.59
2023-03-06T07:44:25.285Z,1.41
2023-03-06T07:45:25.302Z,1.41
2023-03-06T07:46:25.343Z,351.53
2023-03-06T07:47:25.290Z,354.35
2023-03-06T07:48:25.271Z,354.35
2023-03-06T07:49:25.285Z,351.53
2023-03-06T07:50:25.274Z,351.53
2023-03-06T07:51:25.306Z,345.88
2023-03-06T07:52:25.282Z,337.41
2023-03-06T07:53:25.277Z,340.24
2023-03-06T07:54:25.299Z,336
2023-03-06T07:55:25.303Z,336
2023-03-06T07:56:25.294Z,340.24
2023-03-06T07:57:25.309Z,338.82
2023-03-06T07:58:25.283Z,338.82
2023-03-06T07:59:25.289Z,340.24
2023-03-06T08:00:25.304Z,338.82
2023-03-06T08:01:25.297Z,338.82
2023-03-06T08:02:25.293Z,338.82
2023-03-06T08:03:25.299Z,328.94
2023-03-06T08:04:25.286Z,340.24
2023-03-06T08:05:25.288Z,320.47
2023-03-06T08:06:25.310Z,337.41
2023-03-06T08:07:25.284Z,338.82
2023-03-06T08:08:25.297Z,334.59
2023-03-06T08:09:25.298Z,334.59
2023-03-06T08:10:25.315Z,334.59
2023-03-06T08:11:25.318Z,330.35
2023-03-06T08:12:25.292Z,331.76
2023-03-06T08:13:25.298Z,331.76
2023-03-06T08:14:25.294Z,331.76
2023-03-06T08:15:25.301Z,341.65
2023-03-06T08:16:25.339Z,306.35
2023-03-06T08:17:25.301Z,338.82
2023-03-06T08:18:25.308Z,340.24
2023-03-06T08:19:25.304Z,340.24
2023-03-06T08:20:25.329Z,341.65
2023-03-06T08:21:25.326Z,340.24
2023-03-06T08:22:25.294Z,336
2023-03-06T08:23:25.297Z,336
2023-03-06T08:24:25.297Z,336
2023-03-06T08:25:25.308Z,336
2023-03-06T08:26:25.294Z,336
2023-03-06T08:27:25.325Z,336
2023-03-06T08:28:25.320Z,336
2023-03-06T08:29:25.308Z,336
2023-03-06T08:30:25.337Z,336
2023-03-06T08:31:25.381Z,336
2023-03-06T08:32:25.323Z,336
2023-03-06T08:33:25.347Z,336
2023-03-06T08:34:25.316Z,336
2023-03-06T08:35:25.317Z,336
2023-03-06T08:36:25.310Z,336
2023-03-06T08:37:25.340Z,336
2023-03-06T08:38:25.295Z,336
2023-03-06T08:39:25.330Z,336
2023-03-06T08:40:25.321Z,336
2023-03-06T08:41:25.324Z,336
2023-03-06T08:42:25.313Z,118.59
2023-03-06T08:43:25.324Z,118.59
2023-03-06T08:44:25.313Z,118.59
2023-03-06T08:45:25.325Z,118.59
2023-03-06T08:46:25.316Z,118.59
2023-03-06T08:47:25.323Z,245.65
2023-03-06T08:48:25.297Z,203.29
2023-03-06T08:49:25.309Z,231.53
2023-03-06T08:50:25.311Z,231.53
2023-03-06T08:51:25.317Z,231.53
2023-03-06T08:52:25.335Z,231.53
2023-03-06T08:53:36.775Z,231.53
2023-03-06T08:54:25.317Z,231.53
2023-03-06T08:55:25.313Z,231.53
2023-03-06T08:56:25.308Z,231.53
2023-03-06T08:57:25.320Z,231.53
2023-03-06T08:58:25.313Z,221.65
2023-03-06T08:59:25.366Z,213.18
2023-03-06T09:00:25.435Z,213.18
2023-03-06T09:01:25.343Z,168
2023-03-06T09:02:25.323Z,168
2023-03-06T09:03:25.317Z,230.12
2023-03-06T09:04:25.314Z,225.88
2023-03-06T09:05:25.317Z,225.88
2023-03-06T09:06:25.323Z,225.88
2023-03-06T09:07:25.314Z,225.88
2023-03-06T09:08:25.320Z,225.88
2023-03-06T09:09:25.312Z,225.88
2023-03-06T09:10:25.424Z,225.88
2023-03-06T09:11:25.321Z,160.94
2023-03-06T09:12:25.326Z,176.47
2023-03-06T09:13:25.324Z,230.12
2023-03-06T09:14:25.323Z,230.12
2023-03-06T09:15:25.356Z,230.12
2023-03-06T09:16:25.379Z,230.12
2023-03-06T09:17:25.408Z,230.12
2023-03-06T09:18:25.324Z,230.12
2023-03-06T09:19:25.329Z,230.12
2023-03-06T09:20:25.323Z,230.12
2023-03-06T09:21:25.327Z,230.12
2023-03-06T09:22:25.323Z,230.12
2023-03-06T09:23:25.337Z,230.12
2023-03-06T09:24:25.326Z,230.12
2023-03-06T09:25:25.344Z,230.12
2023-03-06T09:26:36.108Z,230.12
2023-03-06T09:27:25.343Z,242.82
2023-03-06T09:28:25.347Z,197.65
2023-03-06T09:29:25.357Z,197.65
2023-03-06T09:30:25.348Z,225.88
2023-03-06T09:31:25.410Z,225.88
2023-03-06T09:32:25.386Z,213.18
2023-03-06T09:33:25.346Z,186.35
2023-03-06T09:34:25.338Z,186.35
2023-03-06T09:35:25.386Z,186.35
2023-03-06T09:36:25.348Z,186.35
2023-03-06T09:37:25.350Z,186.35
2023-03-06T09:38:25.338Z,235.76
2023-03-06T09:39:25.340Z,231.53
2023-03-06T09:40:25.335Z,231.53
2023-03-06T09:41:25.347Z,231.53
2023-03-06T09:42:25.346Z,231.53
2023-03-06T09:43:25.353Z,231.53
2023-03-06T09:44:25.343Z,231.53
2023-03-06T09:45:25.351Z,231.53
2023-03-06T09:46:25.378Z,231.53
2023-03-06T09:47:25.402Z,231.53
2023-03-06T09:48:25.361Z,231.53
2023-03-06T09:49:25.361Z,231.53
2023-03-06T09:50:25.351Z,160.94
2023-03-06T09:51:25.357Z,152.47
2023-03-06T09:52:25.346Z,152.47
2023-03-06T09:53:25.358Z,152.47
2023-03-06T09:54:25.350Z,152.47
2023-03-06T09:55:25.354Z,152.47
2023-03-06T09:56:25.357Z,152.47
2023-03-06T09:57:25.354Z,152.47
2023-03-06T09:58:25.365Z,152.47
2023-03-06T09:59:25.345Z,152.47
2023-03-06T10:00:25.359Z,152.47
2023-03-06T10:01:25.347Z,152.47
2023-03-06T10:02:25.437Z,152.47
2023-03-06T10:03:25.462Z,152.47
2023-03-06T10:04:25.359Z,152.47
2023-03-06T10:05:25.352Z,152.47
2023-03-06T10:06:25.351Z,152.47
2023-03-06T10:07:25.355Z,152.47
2023-03-06T10:08:25.360Z,152.47
2023-03-06T10:09:25.357Z,9.88
2023-03-06T10:10:25.359Z,9.88
2023-03-06T10:11:25.365Z,9.88
2023-03-06T10:12:25.361Z,9.88
2023-03-06T10:13:25.358Z,9.88
2023-03-06T10:14:25.385Z,9.88
2023-03-06T10:15:25.438Z,9.88
2023-03-06T10:16:25.358Z,9.88
2023-03-06T10:17:25.377Z,9.88
2023-03-06T10:18:25.383Z,9.88
2023-03-06T10:19:25.388Z,9.88
2023-03-06T10:20:25.375Z,9.88
2023-03-06T10:21:25.380Z,9.88
2023-03-06T10:22:25.364Z,9.88
2023-03-06T10:23:25.371Z,230.12
2023-03-06T10:24:25.400Z,230.12
2023-03-06T10:25:25.364Z,230.12
2023-03-06T10:26:25.507Z,245.65
2023-03-06T10:27:25.374Z,327.53
2023-03-06T10:28:25.378Z,326.12
2023-03-06T10:29:25.369Z,319.06
2023-03-06T10:30:26.035Z,303.53
2023-03-06T10:31:25.385Z,282.35
2023-03-06T10:32:25.423Z,290.82
2023-03-06T10:33:25.372Z,295.06
2023-03-06T10:34:25.369Z,286.59
2023-03-06T10:35:25.476Z,307.76
2023-03-06T10:36:25.382Z,307.76
2023-03-06T10:37:25.379Z,48
2023-03-06T10:38:25.367Z,354.35
2023-03-06T10:39:25.375Z,354.35
2023-03-06T10:40:25.382Z,4.24
2023-03-06T10:41:25.376Z,4.24
2023-03-06T10:42:26.225Z,282.35
2023-03-06T10:43:25.398Z,282.35
2023-03-06T10:44:25.376Z,282.35
2023-03-06T10:45:25.407Z,275.29
2023-03-06T10:46:25.486Z,275.29
2023-03-06T10:47:25.380Z,275.29
2023-03-06T10:48:25.383Z,275.29
2023-03-06T10:49:25.392Z,275.29
2023-03-06T10:50:25.390Z,275.29
2023-03-06T10:51:25.537Z,275.29
2023-03-06T10:52:25.398Z,275.29
2023-03-06T10:53:25.385Z,275.29
2023-03-06T10:54:25.379Z,275.29
2023-03-06T10:55:25.397Z,275.29
2023-03-06T10:56:25.392Z,275.29
2023-03-06T10:57:25.407Z,275.29
2023-03-06T10:58:25.389Z,275.29
2023-03-06T10:59:25.526Z,275.29
2023-03-06T11:00:25.443Z,275.29
2023-03-06T11:01:25.500Z,269.65
2023-03-06T11:02:25.392Z,278.12
2023-03-06T11:03:25.398Z,261.18
2023-03-06T11:04:25.456Z,261.18
2023-03-06T11:05:25.418Z,261.18
2023-03-06T11:06:25.389Z,261.18
2023-03-06T11:07:26.064Z,279.53
2023-03-06T11:08:25.399Z,288
2023-03-06T11:09:25.393Z,265.41
2023-03-06T11:10:25.394Z,265.41
2023-03-06T11:11:37.007Z,268.24
2023-03-06T11:12:25.395Z,290.82
2023-03-06T11:13:25.401Z,272.47
2023-03-06T11:14:27.555Z,248.47
2023-03-06T11:15:25.408Z,248.47
2023-03-06T11:16:25.988Z,227.29
2023-03-06T11:17:25.397Z,213.18
2023-03-06T11:18:25.398Z,213.18
2023-03-06T11:19:25.413Z,213.18
2023-03-06T11:20:25.411Z,213.18
2023-03-06T11:21:25.406Z,213.18
2023-03-06T11:22:25.399Z,213.18
2023-03-06T11:23:25.572Z,213.18
2023-03-06T11:24:25.401Z,213.18
2023-03-06T11:25:25.400Z,213.18
2023-03-06T11:26:25.398Z,213.18
2023-03-06T11:27:25.398Z,213.18
2023-03-06T11:28:25.408Z,245.65
2023-03-06T11:29:25.505Z,280.94
2023-03-06T11:30:25.393Z,289.41
2023-03-06T11:31:25.454Z,268.24
2023-03-06T11:32:25.495Z,252.71
2023-03-06T11:33:25.406Z,264
2023-03-06T11:34:25.407Z,251.29
2023-03-06T11:35:25.429Z,251.29
2023-03-06T11:36:25.410Z,251.29
2023-03-06T11:37:25.401Z,251.29
2023-03-06T11:38:25.405Z,251.29
2023-03-06T11:39:25.441Z,173.65
2023-03-06T11:40:25.411Z,127.06
2023-03-06T11:41:25.403Z,127.06
2023-03-06T11:42:25.407Z,46.59
2023-03-06T11:43:25.413Z,8.47
2023-03-06T11:44:25.422Z,77.65
2023-03-06T11:45:25.411Z,60.71
2023-03-06T11:46:25.449Z,56.47
2023-03-06T11:47:25.403Z,56.47
2023-03-06T11:48:25.402Z,360
2023-03-06T11:49:25.416Z,296.47
2023-03-06T11:50:25.411Z,296.47
2023-03-06T11:51:25.408Z,60.71
2023-03-06T11:52:25.414Z,49.41
2023-03-06T11:53:25.427Z,49.41
2023-03-06T11:54:25.418Z,49.41
2023-03-06T11:55:25.440Z,49.41
2023-03-06T11:56:25.421Z,290.82
2023-03-06T11:57:25.412Z,293.65
2023-03-06T11:58:25.412Z,288
2023-03-06T11:59:25.418Z,319.06
2023-03-06T12:00:25.430Z,286.59
2023-03-06T12:01:25.423Z,288
2023-03-06T12:02:25.464Z,302.12
2023-03-06T12:03:25.419Z,337.41
2023-03-06T12:04:25.430Z,333.18
2023-03-06T12:05:25.468Z,333.18
2023-03-06T12:06:25.430Z,313.41
2023-03-06T12:07:25.427Z,269.65
2023-03-06T12:08:25.426Z,262.59
2023-03-06T12:09:25.431Z,330.35
2023-03-06T12:10:25.442Z,323.29
2023-03-06T12:11:25.460Z,283.76
2023-03-06T12:12:25.432Z,283.76
2023-03-06T12:14:25.422Z,303.53
2023-03-06T12:15:25.441Z,286.59
2023-03-06T12:16:25.475Z,288
2023-03-06T12:17:25.426Z,326.12
2023-03-06T12:18:25.417Z,326.12
2023-03-06T12:19:25.447Z,317.65
2023-03-06T12:20:25.430Z,290.82
2023-03-06T12:21:25.432Z,321.88
2023-03-06T12:22:25.428Z,328.94
2023-03-06T12:23:25.434Z,303.53
2023-03-06T12:24:25.436Z,316.24
2023-03-06T12:25:25.441Z,313.41
2023-03-06T12:26:25.427Z,288
2023-03-06T12:27:25.513Z,330.35
2023-03-06T12:28:25.438Z,25.41
2023-03-06T12:29:25.443Z,295.06
2023-03-06T12:30:25.438Z,275.29
2023-03-06T12:31:25.499Z,269.65
2023-03-06T12:32:25.476Z,207.53
2023-03-06T12:33:25.440Z,289.41
2023-03-06T12:34:25.435Z,264
2023-03-06T12:35:25.517Z,300.71
2023-03-06T12:36:25.441Z,276.71
2023-03-06T12:37:25.437Z,331.76
2023-03-06T12:38:25.439Z,341.65